Time;durP1;ratioP1;P1;durP2;ratioP2;P2;SDS_P1;SDS_P2;PMS_P1;PMS_P2;Temp;Humidity;BMP_temperature;BMP_pressure;BME280_temperature;BME280_humidity;BME280_pressure;Samples;Min_cycle;Max_cycle;Signal;HPM_P1;HPM_P2
2022/05/09 00:01:04;;;;;;;13.25;6.00;;;10.00;99.90;;;10.91;77.57;163401.97;5094461;28;20032;-85
2022/05/09 00:03:31;;;;;;;10.93;5.05;;;10.00;99.90;;;10.92;76.73;163404.63;5096134;28;20023;-85
2022/05/09 00:05:59;;;;;;;14.23;6.35;;;10.10;99.90;;;10.95;77.28;163411.28;5097929;28;20471;-87
2022/05/09 00:08:26;;;;;;;10.90;5.18;;;10.10;99.90;;;10.94;76.23;163410.00;5098109;28;20084;-88
2022/05/09 00:10:51;;;;;;;9.35;4.10;;;10.10;99.90;;;10.99;75.76;163423.34;5084024;28;20090;-87
2022/05/09 00:13:17;;;;;;;13.90;5.90;;;10.10;99.90;;;10.95;75.21;163411.28;5077852;28;20034;-86
2022/05/09 00:15:43;;;;;;;12.88;5.28;;;10.00;99.90;;;10.88;75.43;163393.97;5077804;28;20058;-86
2022/05/09 00:18:09;;;;;;;11.82;5.03;;;10.10;99.90;;;10.83;75.67;163380.59;5077907;28;20468;-86
2022/05/09 00:20:35;;;;;;;13.43;5.82;;;10.00;99.90;;;10.79;76.98;163369.88;5078078;28;20027;-86
2022/05/09 00:23:01;;;;;;;14.88;6.40;;;9.90;99.90;;;10.75;77.08;163359.25;5077628;28;20369;-85
2022/05/09 00:25:27;;;;;;;13.88;5.80;;;9.90;99.90;;;10.71;76.81;163347.19;5094787;28;20107;-83
2022/05/09 00:27:55;;;;;;;15.05;5.70;;;9.90;99.90;;;10.71;76.56;163347.19;5078117;28;20480;-86
2022/05/09 00:30:22;;;;;;;12.60;5.47;;;9.90;99.90;;;10.65;76.63;163331.19;5077613;28;20035;-86
2022/05/09 00:32:49;;;;;;;13.45;5.57;;;9.80;99.90;;;10.67;76.21;163336.50;5077701;28;20028;-87
2022/05/09 00:35:15;;;;;;;11.18;5.30;;;9.80;99.90;;;10.63;76.87;163325.84;5096737;28;20024;-85
2022/05/09 00:37:41;;;;;;;11.85;5.15;;;9.80;99.90;;;10.57;77.39;163312.47;5078839;28;20153;-83
2022/05/09 00:40:13;;;;;;;15.02;5.00;;;9.70;99.90;;;10.46;78.46;163283.13;5078710;28;20047;-88
2022/05/09 00:42:53;;;;;;;11.32;4.20;;;9.60;99.90;;;10.38;79.16;163260.38;5087539;28;20609;-85
2022/05/09 00:45:25;;;;;;;9.98;4.53;;;9.50;99.90;;;10.25;80.10;163225.66;5077484;28;20059;-84
2022/05/09 00:47:52;;;;;;;8.75;4.28;;;9.40;99.90;;;10.13;80.82;163193.56;5077409;28;20038;-88
2022/05/09 00:50:31;;;;;;;8.80;4.63;;;9.30;99.90;;;10.01;81.20;163164.22;5076985;28;20028;-87
2022/05/09 00:53:07;;;;;;;11.93;5.15;;;9.20;99.90;;;9.91;81.57;163137.53;5095111;28;20027;-84
2022/05/09 00:55:45;;;;;;;9.10;4.85;;;9.00;99.90;;;9.86;82.15;163122.81;5077015;28;20106;-88
2022/05/09 00:58:27;;;;;;;13.95;4.55;;;9.00;99.90;;;9.80;82.24;163108.13;5094950;28;20024;-87
2022/05/09 01:00:56;;;;;;;13.80;4.18;;;8.90;99.90;;;9.77;82.36;163100.13;5078013;28;20020;-86
2022/05/09 01:03:41;;;;;;;14.07;4.20;;;9.00;99.90;;;9.72;82.28;163086.81;5078097;28;20066;-88
2022/05/09 01:06:09;;;;;;;9.57;4.30;;;8.90;99.90;;;9.65;82.70;163068.09;5078555;28;20038;-88
2022/05/09 01:08:36;;;;;;;12.98;4.60;;;8.90;99.90;;;9.59;83.25;163050.75;5081171;28;20035;-91
2022/05/09 01:11:09;;;;;;;7.93;4.10;;;8.80;99.90;;;9.50;83.10;163029.38;5094528;28;20115;-87
2022/05/09 01:13:44;;;;;;;9.27;4.05;;;8.70;99.90;;;9.46;83.16;163017.41;5097975;28;20038;-88
2022/05/09 01:16:16;;;;;;;8.65;4.15;;;8.60;99.90;;;9.42;82.89;163008.06;5098386;28;20024;-87
2022/05/09 01:18:46;;;;;;;7.97;4.15;;;8.60;99.90;;;9.41;83.14;163005.38;5098722;28;20027;-86
2022/05/09 01:21:37;;;;;;;13.07;4.93;;;8.60;99.90;;;9.50;82.92;163028.09;5100264;28;20050;-87
2022/05/09 01:24:14;;;;;;;8.50;3.88;;;8.60;99.90;;;9.52;82.66;163033.41;5105948;28;20038;-84
2022/05/09 01:26:39;;;;;;;12.05;4.30;;;8.60;99.90;;;9.58;82.30;163049.41;5120340;28;20038;-82
2022/05/09 01:29:32;;;;;;;11.35;4.35;;;8.70;99.90;;;9.59;82.48;163052.09;5119145;28;20032;-88
2022/05/09 01:31:59;;;;;;;14.35;4.03;;;8.70;99.90;;;9.63;82.62;163062.78;5096633;28;20367;-85
2022/05/09 01:34:27;;;;;;;10.52;4.57;;;8.80;99.90;;;9.63;82.33;163062.78;5096163;28;20492;-86
2022/05/09 01:37:04;;;;;;;10.32;4.32;;;8.80;99.90;;;9.57;82.39;163045.44;5096561;28;20097;-86
2022/05/09 01:39:32;;;;;;;10.88;4.47;;;8.70;99.90;;;9.52;81.83;163033.41;5114513;28;20027;-86
2022/05/09 01:42:05;;;;;;;11.30;3.95;;;8.70;99.90;;;9.52;82.17;163033.41;5096794;28;20027;-85
2022/05/09 01:44:31;;;;;;;14.55;5.25;;;8.70;99.90;;;9.56;81.80;163044.09;5096029;28;20027;-85
2022/05/09 01:49:41;;;;;;;8.93;4.22;;;8.70;99.90;;;9.48;82.27;163022.72;5114689;28;20035;-85
2022/05/09 01:52:14;;;;;;;14.23;4.35;;;8.70;99.90;;;9.45;82.40;163014.72;5096329;28;20031;-86
2022/05/09 01:54:43;;;;;;;11.52;4.18;;;8.60;99.90;;;9.38;82.46;162997.34;5096271;28;20144;-87
2022/05/09 01:57:12;;;;;;;8.88;4.47;;;8.60;99.90;;;9.37;82.32;162993.38;5095976;28;20088;-86
2022/05/09 01:59:41;;;;;;;14.68;5.25;;;8.60;99.90;;;9.41;81.78;163004.03;5095470;28;20062;-87
2022/05/09 02:02:19;;;;;;;9.73;4.47;;;8.60;99.90;;;9.44;82.07;163013.38;5096147;28;20028;-85
2022/05/09 02:04:46;;;;;;;8.15;4.28;;;8.60;99.90;;;9.34;82.58;162985.38;5096055;28;20043;-85
2022/05/09 02:07:18;;;;;;;10.32;3.88;;;8.50;99.90;;;9.24;82.93;162958.69;5095950;28;20038;-84
2022/05/09 02:09:48;;;;;;;11.85;4.38;;;8.40;99.90;;;9.21;82.53;162952.03;5095738;28;20164;-86
2022/05/09 02:12:16;;;;;;;9.70;3.80;;;8.40;99.90;;;9.19;82.59;162945.31;5095863;28;20027;-88
2022/05/09 02:14:43;;;;;;;9.35;4.00;;;8.40;99.90;;;9.15;82.71;162934.69;5096121;28;20123;-85
2022/05/09 02:17:12;;;;;;;8.27;4.25;;;8.30;99.90;;;9.14;82.27;162932.00;5098189;28;20027;-85
2022/05/09 02:19:40;;;;;;;15.02;5.30;;;8.30;99.90;;;9.21;81.86;162950.69;5095895;28;20030;-85
2022/05/09 02:22:11;;;;;;;13.00;4.15;;;8.30;99.90;;;9.28;80.87;162970.66;5095576;28;20066;-85
2022/05/09 02:24:41;;;;;;;9.77;4.53;;;8.40;99.90;;;9.32;81.13;162980.00;5095758;28;20498;-86
2022/05/09 02:27:09;;;;;;;13.05;4.35;;;8.50;99.90;;;9.33;80.80;162984.03;5095300;28;20486;-86
2022/05/09 02:29:39;;;;;;;11.23;4.93;;;8.40;99.90;;;9.36;80.79;162990.69;5095706;28;20024;-87
2022/05/09 02:32:07;;;;;;;10.77;3.95;;;8.50;99.90;;;9.35;80.09;162989.34;5096050;28;20372;-87
2022/05/09 02:34:33;;;;;;;15.57;4.15;;;8.50;99.90;;;9.41;79.78;163004.03;5095358;28;20031;-86
2022/05/09 02:37:00;;;;;;;11.82;4.18;;;8.60;99.90;;;9.45;79.48;163016.06;5095489;28;20033;-86
2022/05/09 02:39:26;;;;;;;11.20;4.22;;;8.60;99.90;;;9.46;79.00;163017.41;5095291;28;20387;-85
2022/05/09 02:41:53;;;;;;;8.27;4.15;;;8.50;99.90;;;9.40;79.46;163001.38;5095344;28;20023;-85
2022/05/09 02:44:20;;;;;;;11.93;4.60;;;8.60;99.90;;;9.40;79.23;163002.72;5095718;28;20034;-84
2022/05/09 02:46:46;;;;;;;8.27;3.88;;;8.50;99.90;;;9.33;79.65;162982.69;5096388;28;20027;-87
2022/05/09 02:49:12;;;;;;;9.90;4.60;;;8.60;99.90;;;9.34;79.93;162986.66;5096128;28;20035;-87
2022/05/09 02:51:38;;;;;;;9.13;3.75;;;8.50;99.90;;;9.26;79.77;162965.34;5096215;28;20399;-86
2022/05/09 02:54:04;;;;;;;15.00;4.68;;;8.50;99.90;;;9.27;80.44;162966.69;5097437;28;20081;-86
2022/05/09 02:56:30;;;;;;;10.02;4.53;;;8.40;99.90;;;9.24;80.38;162960.03;5124510;28;20031;-89
2022/05/09 02:58:56;;;;;;;8.75;4.15;;;8.40;99.90;;;9.21;80.74;162952.03;5113742;28;20027;-88
2022/05/09 03:01:22;;;;;;;8.93;3.97;;;8.40;99.90;;;9.24;80.53;162958.69;5116902;28;20023;-86
2022/05/09 03:06:33;;;;;;;12.90;5.07;;;8.30;99.90;;;9.33;80.38;162984.03;5122688;28;20094;-87
2022/05/09 03:08:59;;;;;;;12.07;4.78;;;8.40;99.90;;;9.29;80.21;162972.00;5119637;28;20027;-90
2022/05/09 03:11:26;;;;;;;12.27;4.57;;;8.40;99.90;;;9.28;80.57;162969.38;5083737;28;20028;-85
2022/05/09 03:13:53;;;;;;;12.43;5.13;;;8.30;99.90;;;9.28;80.54;162970.66;5076413;28;20032;-86
2022/05/09 03:16:21;;;;;;;12.57;5.22;;;8.40;99.90;;;9.28;80.81;162969.38;5075972;28;20028;-86
2022/05/09 03:18:47;;;;;;;13.98;5.70;;;8.40;99.90;;;9.26;80.72;162965.34;5075693;28;20024;-88
2022/05/09 03:21:13;;;;;;;13.07;5.53;;;8.40;99.90;;;9.25;80.77;162961.31;5075884;28;20051;-88
2022/05/09 03:23:39;;;;;;;11.80;5.53;;;8.30;99.90;;;9.24;81.22;162958.69;5093122;28;20111;-88
2022/05/09 03:26:05;;;;;;;13.40;5.32;;;8.40;99.90;;;9.21;81.25;162952.03;5076444;28;20081;-88
2022/05/09 03:28:32;;;;;;;10.10;4.90;;;8.30;99.90;;;9.16;81.55;162938.66;5077697;28;20059;-88
2022/05/09 03:31:00;;;;;;;14.43;6.13;;;8.30;99.90;;;9.15;81.89;162935.97;5096552;28;20034;-86
2022/05/09 03:33:27;;;;;;;14.48;6.03;;;8.30;99.90;;;9.11;81.96;162924.00;5082177;28;20024;-84
2022/05/09 03:35:57;;;;;;;18.42;6.55;;;8.30;99.90;;;9.05;82.73;162909.34;5097767;28;20035;-85
2022/05/09 03:38:22;;;;;;;14.60;6.30;;;8.30;99.90;;;9.06;82.78;162910.63;5103233;28;20101;-90
2022/05/09 03:40:48;;;;;;;12.20;5.93;;;8.30;99.90;;;8.98;83.34;162891.97;5082328;28;20024;-89
2022/05/09 03:43:14;;;;;;;11.20;5.40;;;8.20;99.90;;;8.97;83.40;162889.28;5083186;28;20024;-89
2022/05/09 03:45:46;;;;;;;13.20;5.93;;;8.10;99.90;;;8.93;83.54;162877.28;5083460;28;20534;-85
2022/05/09 03:48:12;;;;;;;14.32;7.18;;;8.10;99.90;;;8.93;84.25;162878.63;5078596;28;20031;-87
2022/05/09 03:50:37;;;;;;;16.73;6.68;;;8.10;99.90;;;8.96;83.96;162885.28;5078731;28;20062;-87
2022/05/09 03:53:04;;;;;;;14.30;6.38;;;8.10;99.90;;;8.95;83.96;162883.97;5080052;28;20051;-86
2022/05/09 03:55:33;;;;;;;12.73;6.30;;;8.10;99.90;;;8.93;83.98;162877.28;5080510;28;20036;-85
2022/05/09 03:58:00;;;;;;;17.65;6.57;;;8.10;99.90;;;8.94;84.29;162881.31;5098928;28;20024;-85
2022/05/09 04:00:32;;;;;;;13.00;6.28;;;8.10;99.90;;;8.95;84.03;162883.97;5079409;28;20077;-86
2022/05/09 04:03:00;;;;;;;11.48;6.65;;;8.10;99.90;;;9.04;83.66;162906.66;5102147;28;20020;-86
2022/05/09 04:05:30;;;;;;;13.18;6.35;;;8.10;99.90;;;9.09;83.65;162918.63;5081077;28;20098;-89
2022/05/09 04:08:02;;;;;;;11.25;5.80;;;8.20;99.90;;;9.09;83.47;162919.97;5080683;28;20230;-87
2022/05/09 04:10:34;;;;;;;15.75;6.55;;;8.20;99.90;;;9.07;83.38;162914.66;5080439;28;20055;-88
2022/05/09 04:13:01;;;;;;;12.70;6.50;;;8.20;99.90;;;9.14;83.27;162933.34;5080570;28;20097;-86
2022/05/09 04:18:17;;;;;;;11.18;5.55;;;8.30;99.90;;;9.14;83.41;162932.00;5101380;28;20443;-87
2022/05/09 04:20:50;;;;;;;12.02;6.13;;;8.30;99.90;;;9.14;83.93;162933.34;5097467;28;20028;-86
2022/05/09 04:23:16;;;;;;;12.20;5.95;;;8.20;99.90;;;9.15;83.85;162935.97;5081047;28;20020;-83
2022/05/09 04:25:44;;;;;;;14.02;6.55;;;8.30;99.90;;;9.16;83.98;162938.66;5081564;28;20357;-87
2022/05/09 04:28:11;;;;;;;19.48;6.43;;;8.20;99.90;;;9.16;84.22;162938.66;5081378;28;20498;-86
2022/05/09 04:30:39;;;;;;;17.52;6.80;;;8.30;99.90;;;9.23;83.41;162957.34;5088842;28;20119;-85
2022/05/09 04:33:07;;;;;;;18.42;6.75;;;8.30;99.90;;;9.28;83.47;162969.38;5083306;28;20032;-87
2022/05/09 04:35:39;;;;;;;11.25;5.95;;;8.40;99.90;;;9.31;83.12;162978.66;5081380;28;20023;-86
2022/05/09 04:38:06;;;;;;;17.23;6.97;;;8.40;99.90;;;9.29;83.62;162973.34;5080679;28;20161;-86
2022/05/09 04:40:36;;;;;;;12.52;5.88;;;8.40;99.90;;;9.36;83.08;162990.69;5081603;28;20031;-86
2022/05/09 04:43:03;;;;;;;14.80;6.30;;;8.40;99.90;;;9.39;83.24;162998.69;5082311;28;20035;-84
2022/05/09 04:45:32;;;;;;;12.68;6.10;;;8.50;99.90;;;9.40;82.92;163002.72;5081362;28;20046;-86
2022/05/09 04:48:00;;;;;;;14.07;5.82;;;8.60;99.90;;;9.45;83.24;163014.72;5080933;28;20105;-85
2022/05/09 04:50:28;;;;;;;12.07;6.55;;;8.60;99.90;;;9.49;82.45;163025.41;5080787;28;20028;-87
2022/05/09 04:52:54;;;;;;;13.55;6.60;;;8.60;99.90;;;9.57;82.23;163045.44;5080822;28;20053;-85
2022/05/09 04:55:21;;;;;;;15.15;6.90;;;8.70;99.90;;;9.71;81.86;163084.13;5080251;28;20448;-88
2022/05/09 04:57:50;;;;;;;12.77;6.05;;;8.70;99.90;;;9.74;81.31;163092.13;5096771;28;20024;-86
2022/05/09 05:00:24;;;;;;;10.93;5.88;;;8.80;99.90;;;9.82;81.58;163113.50;5079087;28;20028;-88
2022/05/09 05:02:51;;;;;;;13.80;5.93;;;8.80;99.90;;;9.83;82.90;163116.13;5080414;28;20035;-85
2022/05/09 05:05:17;;;;;;;9.77;5.65;;;8.90;99.90;;;9.94;83.61;163145.53;5077541;28;20028;-85
2022/05/09 05:07:43;;;;;;;8.80;5.85;;;8.90;99.90;;;10.08;83.92;163181.59;5077624;28;20066;-85
2022/05/09 05:10:12;;;;;;;9.05;4.75;;;9.10;99.90;;;10.24;84.15;163224.31;5077951;28;20025;-85
2022/05/09 05:12:39;;;;;;;11.57;5.72;;;9.20;99.90;;;10.49;84.23;163289.78;5078980;28;20499;-86
2022/05/09 05:15:07;;;;;;;11.38;5.90;;;9.30;99.90;;;10.75;83.98;163359.25;5078722;28;20410;-85
2022/05/09 05:17:34;;;;;;;19.25;7.00;;;9.50;99.90;;;11.01;82.68;163428.66;5078556;28;20032;-85
2022/05/09 05:20:00;;;;;;;13.13;7.03;;;9.80;99.90;;;11.31;81.80;163507.50;5078242;28;20027;-86
2022/05/09 05:22:27;;;;;;;15.88;7.40;;;10.00;99.90;;;11.59;80.82;163581.03;5078497;28;20054;-86
2022/05/09 05:24:54;;;;;;;11.73;5.78;;;10.20;99.90;;;11.87;80.83;163654.56;5080139;28;20020;-87
2022/05/09 05:27:22;;;;;;;12.20;6.53;;;10.50;99.90;;;12.11;80.18;163720.06;5079798;28;20028;-88
2022/05/09 05:29:49;;;;;;;11.88;5.93;;;10.70;99.90;;;12.34;78.61;163780.22;5079420;28;20536;-87
2022/05/09 05:32:19;;;;;;;11.52;6.53;;;10.90;99.90;;;12.61;76.85;163852.47;5079894;28;20060;-85
2022/05/09 05:34:47;;;;;;;8.13;5.25;;;11.10;99.90;;;12.73;75.71;163883.22;5079730;28;20027;-84
2022/05/09 05:37:13;;;;;;;11.70;5.35;;;11.20;99.90;;;13.01;74.60;163958.09;5080163;28;20036;-87
2022/05/09 05:39:41;;;;;;;13.10;5.95;;;11.50;99.90;;;13.29;73.31;164031.75;5080882;28;20063;-85
2022/05/09 05:42:08;;;;;;;16.13;5.93;;;11.80;99.90;;;13.57;71.83;164105.34;5081610;28;20024;-86
2022/05/09 05:44:35;;;;;;;10.95;6.13;;;11.90;99.90;;;13.84;71.27;164177.59;5099990;28;20046;-83
2022/05/09 05:47:12;;;;;;;15.15;6.05;;;12.20;99.90;;;14.20;68.54;164273.97;5087197;28;20128;-86
2022/05/09 05:49:40;;;;;;;13.93;5.78;;;12.50;99.90;;;14.38;66.63;164320.91;5077385;28;20121;-84
2022/05/09 05:52:09;;;;;;;13.20;6.05;;;12.70;99.90;;;14.40;66.38;164326.25;5078125;28;20430;-85
2022/05/09 05:54:43;;;;;;;9.25;5.93;;;12.80;99.90;;;14.66;65.91;164395.88;5076522;28;20142;-87
2022/05/09 05:57:32;;;;;;;10.57;5.50;;;13.10;99.90;;;14.70;64.20;164406.56;5077366;28;20122;-86
2022/05/09 06:00:21;;;;;;;11.15;5.55;;;13.10;99.90;;;14.53;63.70;164361.06;5077104;28;20051;-84
2022/05/09 06:02:49;;;;;;;10.10;5.10;;;13.10;99.90;;;14.36;63.83;164314.16;5095701;28;20050;-85
2022/05/09 06:05:19;;;;;;;7.30;5.03;;;12.90;99.90;;;14.29;64.95;164295.41;5077506;28;20038;-88
2022/05/09 06:07:47;;;;;;;8.43;5.40;;;12.90;99.90;;;14.17;64.89;164265.94;5078294;28;20031;-88
2022/05/09 06:10:16;;;;;;;12.23;6.68;;;12.90;99.90;;;14.00;66.69;164220.41;5077584;28;20020;-88
2022/05/09 06:12:43;;;;;;;12.05;5.97;;;12.70;99.90;;;13.95;66.74;164205.69;5076522;28;20020;-85
2022/05/09 06:15:25;;;;;;;11.20;6.00;;;12.60;99.90;;;14.23;66.50;164282.00;5076938;28;20024;-86
2022/05/09 06:17:56;;;;;;;14.07;5.97;;;12.80;99.90;;;14.85;65.39;164445.41;5076436;28;20135;-86
2022/05/09 06:20:23;;;;;;;10.13;5.95;;;13.30;99.90;;;15.37;62.36;164583.41;5076737;28;20032;-86
2022/05/09 06:22:50;;;;;;;8.90;5.85;;;13.80;99.90;;;15.82;59.56;164702.69;5075834;28;20044;-85
2022/05/09 06:25:20;;;;;;;13.40;6.30;;;14.20;99.90;;;16.23;59.33;164812.59;5076577;28;20028;-86
2022/05/09 06:27:48;;;;;;;9.75;5.88;;;14.60;99.90;;;16.70;57.55;164937.31;5075937;28;20028;-86
2022/05/09 06:30:18;;;;;;;14.38;5.97;;;15.00;99.90;;;17.05;55.78;165029.81;5075712;28;20028;-83
2022/05/09 06:32:44;;;;;;;12.45;5.55;;;15.40;99.90;;;17.29;56.14;165092.88;5075952;28;20035;-85
2022/05/09 06:35:36;;;;;;;9.43;5.32;;;15.60;99.90;;;17.59;54.67;165173.44;5076347;28;20482;-85
2022/05/09 06:38:06;;;;;;;11.80;5.57;;;15.80;99.90;;;17.94;54.46;165266.00;5095018;28;20062;-87
2022/05/09 06:40:37;;;;;;;8.73;5.25;;;16.20;99.90;;;18.18;53.32;165330.38;5076649;28;20040;-86
2022/05/09 06:43:03;;;;;;;11.93;5.70;;;16.50;99.90;;;18.47;52.13;165405.53;5077275;28;20028;-86
2022/05/09 06:45:30;;;;;;;10.93;5.50;;;16.70;99.90;;;18.72;51.82;165472.75;5077345;28;20130;-86
2022/05/09 06:47:57;;;;;;;13.57;6.13;;;17.00;99.20;;;18.88;50.39;165517.00;5077184;28;20118;-85
2022/05/09 06:50:33;;;;;;;12.77;6.63;;;17.10;94.80;;;19.16;49.61;165589.53;5076572;28;20077;-87
2022/05/09 06:53:02;;;;;;;8.63;5.18;;;17.40;93.80;;;19.41;49.12;165658.06;5077739;28;20027;-85
2022/05/09 06:55:28;;;;;;;13.60;6.10;;;17.50;92.80;;;19.75;48.64;165748.03;5076197;28;20520;-88
2022/05/09 06:57:53;;;;;;;13.98;6.22;;;17.80;90.50;;;19.90;47.48;165787.03;5077122;28;20097;-84
2022/05/09 07:00:24;;;;;;;14.55;5.93;;;18.00;89.20;;;19.88;47.15;165782.97;5076753;28;20498;-86
2022/05/09 07:02:52;;;;;;;12.52;5.68;;;18.00;86.80;;;19.84;47.65;165772.22;5076771;28;20502;-84
2022/05/09 07:05:21;;;;;;;10.27;5.90;;;18.00;87.30;;;20.16;46.75;165855.53;5076762;28;20031;-84
2022/05/09 07:07:48;;;;;;;13.13;5.72;;;18.30;85.60;;;20.11;46.51;165842.06;5076752;28;20251;-86
2022/05/09 07:10:19;;;;;;;8.25;5.38;;;18.30;82.80;;;20.42;45.86;165925.47;5077276;28;20067;-86
2022/05/09 07:12:51;;;;;;;9.18;5.10;;;18.50;82.50;;;20.33;45.95;165901.25;5080321;28;20095;-87
2022/05/09 07:15:42;;;;;;;17.08;6.43;;;18.60;81.10;;;20.77;45.00;166018.19;5082145;28;20486;-86
2022/05/09 07:19:08;;;;;;;15.00;6.82;;;18.80;79.30;;;20.94;45.60;166063.84;5083519;28;20044;-88
2022/05/09 07:21:38;;;;;;;8.18;5.25;;;18.90;79.90;;;21.30;44.39;166159.38;5090379;28;20023;-87
2022/05/09 07:24:12;;;;;;;10.85;5.70;;;19.40;77.70;;;21.64;43.49;166249.47;5092346;28;20035;-87
2022/05/09 07:26:50;;;;;;;12.55;5.90;;;19.60;75.60;;;21.79;43.17;166289.81;5091682;28;20036;-85
2022/05/09 07:29:16;;;;;;;10.85;5.50;;;19.70;74.40;;;22.04;42.58;166357.09;5091762;28;20066;-88
2022/05/09 07:32:07;;;;;;;8.05;5.10;;;19.90;74.20;;;22.40;41.89;166453.94;5091641;28;20028;-87
2022/05/09 07:34:48;;;;;;;10.77;5.65;;;20.30;72.70;;;22.64;41.33;166515.81;5085489;28;20494;-87
2022/05/09 07:37:15;;;;;;;9.05;4.75;;;20.60;70.80;;;23.05;40.98;166626.25;5088898;28;20039;-86
2022/05/09 07:39:42;;;;;;;14.32;5.38;;;21.00;70.30;;;23.41;40.31;166721.81;5084128;28;20024;-87
2022/05/09 07:42:08;;;;;;;15.05;6.20;;;21.10;68.60;;;23.50;39.78;166747.38;5082283;28;20050;-85
2022/05/09 07:44:34;;;;;;;12.13;5.47;;;21.30;67.70;;;23.43;39.99;166727.22;5082978;28;20380;-87
2022/05/09 07:47:00;;;;;;;12.13;5.28;;;21.30;67.70;;;23.60;40.33;166772.94;5082817;28;20028;-86
2022/05/09 07:49:30;;;;;;;9.85;4.75;;;21.40;68.20;;;24.11;40.17;166910.31;5082227;28;20032;-90
2022/05/09 07:51:56;;;;;;;11.18;5.25;;;22.00;68.70;;;24.35;38.23;166973.63;5095197;28;20012;-83
2022/05/09 07:54:22;;;;;;;11.45;5.95;;;22.20;65.20;;;24.29;38.58;166957.47;5099843;28;20042;-88
2022/05/09 07:56:49;;;;;;;13.45;5.68;;;22.10;64.80;;;24.59;39.08;167036.94;5081884;28;20032;-87
2022/05/09 07:59:19;;;;;;;11.43;5.60;;;22.30;65.90;;;24.73;38.04;167074.63;5082445;28;20400;-86
2022/05/09 08:01:44;;;;;;;8.93;4.95;;;22.50;63.70;;;25.00;37.55;167147.44;5083168;28;20480;-86
2022/05/09 08:04:13;;;;;;;13.02;6.43;;;22.70;63.30;;;24.82;36.72;167097.63;5082051;28;20030;-86
2022/05/09 08:06:42;;;;;;;8.77;5.95;;;22.60;61.70;;;23.90;38.58;166852.38;5082933;28;20032;-86
2022/05/09 08:09:09;;;;;;;10.25;5.57;;;22.40;62.00;;;24.57;37.44;167031.53;5081997;28;20032;-87
2022/05/09 08:11:35;;;;;;;11.35;5.90;;;22.50;61.80;;;25.21;36.93;167201.31;5087199;28;20012;-85
2022/05/09 08:14:02;;;;;;;9.00;4.90;;;23.00;61.80;;;25.71;36.08;167336.13;5099670;28;20024;-89
2022/05/09 08:16:30;;;;;;;12.02;5.70;;;23.40;61.20;;;25.58;36.07;167301.09;5100789;28;20040;-85
2022/05/09 08:18:57;;;;;;;9.85;4.90;;;23.30;59.30;;;25.56;36.13;167295.66;5090510;28;20403;-87
2022/05/09 08:21:28;;;;;;;12.48;5.72;;;23.20;59.90;;;25.35;35.91;167239.06;5082280;28;20154;-86
2022/05/09 08:23:57;;;;;;;11.63;6.03;;;23.20;59.60;;;25.47;36.10;167271.38;5081572;28;20028;-84
2022/05/09 08:26:24;;;;;;;10.80;4.88;;;23.20;60.40;;;25.66;36.38;167324.00;5081362;28;20036;-86
2022/05/09 08:28:56;;;;;;;12.95;5.72;;;23.30;59.90;;;26.20;36.00;167468.25;5081133;28;20035;-86
2022/05/09 08:31:23;;;;;;;13.07;5.25;;;23.70;59.70;;;26.22;36.16;167472.31;5081462;28;20111;-86
2022/05/09 08:33:52;;;;;;;9.85;4.60;;;23.90;59.90;;;26.50;34.83;167546.44;5081313;28;20036;-84
2022/05/09 08:39:09;;;;;;;10.60;4.78;;;24.00;58.30;;;26.67;35.24;167592.28;5101279;28;20500;-86
2022/05/09 08:42:06;;;;;;;9.77;4.20;;;24.40;58.10;;;27.00;34.51;167680.00;5082491;28;20313;-85
2022/05/09 08:45:36;;;;;;;8.63;5.15;;;24.60;57.20;;;26.52;34.66;167551.88;5083444;28;20498;-87
2022/05/09 08:48:43;;;;;;;8.65;3.92;;;24.70;56.60;;;26.90;35.02;167654.38;5084223;28;20032;-88
2022/05/09 08:52:08;;;;;;;11.93;5.70;;;24.70;57.10;;;26.43;35.05;167528.91;5088340;28;20024;-85
2022/05/09 08:54:40;;;;;;;12.55;5.03;;;25.00;56.20;;;26.39;36.71;167516.81;5058971;28;20024;-85
2022/05/09 08:57:21;;;;;;;7.50;4.45;;;24.70;58.30;;;26.94;35.21;167665.13;5084634;28;20032;-90
2022/05/09 09:04:04;;;;;;;10.40;4.40;;;24.60;58.00;;;27.40;34.53;167787.88;5038249;28;20493;-87
2022/05/09 09:06:57;;;;;;;11.18;4.60;;;24.90;57.30;;;27.93;34.03;167929.59;5024912;28;20068;-86
2022/05/09 09:10:19;;;;;;;8.80;3.80;;;25.40;56.40;;;28.08;34.82;167968.75;5024201;28;20029;-90
2022/05/09 09:14:24;;;;;;;18.35;5.75;;;25.70;57.40;;;28.56;32.99;168096.94;5057633;28;20040;-86
2022/05/09 09:17:24;;;;;;;8.10;4.97;;;26.20;55.40;;;28.10;33.35;167974.13;5019618;28;20068;-88
2022/05/09 09:20:47;;;;;;;10.65;4.47;;;25.90;54.80;;;28.16;33.37;167990.31;5081940;28;20034;-87
2022/05/09 09:24:03;;;;;;;7.93;4.05;;;25.90;55.10;;;28.00;34.62;167948.44;5049664;28;20115;-87
2022/05/09 09:27:17;;;;;;;9.50;4.60;;;25.70;56.80;;;26.96;37.64;167670.56;5081430;28;20089;-84
2022/05/09 09:29:59;;;;;;;10.75;4.03;;;25.30;58.40;;;27.80;35.79;167894.50;5079595;28;20032;-88
2022/05/09 09:32:28;;;;;;;8.30;4.28;;;25.60;58.00;;;28.00;35.27;167947.13;5081221;28;20422;-86
2022/05/09 09:35:19;;;;;;;9.35;4.50;;;25.70;57.40;;;28.54;34.97;168092.91;5084088;28;20039;-85
2022/05/09 09:38:09;;;;;;;8.35;4.55;;;25.90;57.70;;;27.88;36.02;167916.06;5080567;28;20066;-87
2022/05/09 09:40:47;;;;;;;8.02;4.57;;;25.90;57.80;;;27.87;36.78;167913.34;5080149;28;20031;-84
2022/05/09 09:43:27;;;;;;;;;;;;;;;;;;;;;
2022/05/09 09:46:20;;;;;;;6.57;3.72;;;26.30;56.20;;;29.15;34.40;168256.28;5097810;28;20448;-84
2022/05/09 09:49:08;;;;;;;8.52;4.13;;;26.60;57.10;;;29.26;34.45;168286.00;5059793;28;20400;-84
2022/05/09 09:51:50;;;;;;;6.38;3.67;;;26.80;56.20;;;29.43;33.50;168330.56;5060095;28;20037;-84
2022/05/09 09:55:32;;;;;;;8.57;4.18;;;26.90;55.60;;;29.32;34.44;168300.84;5060966;28;20116;-87
2022/05/09 09:58:27;;;;;;;8.10;3.40;;;27.10;55.10;;;28.98;34.43;168209.00;5060495;28;20044;-84
2022/05/09 10:01:26;;;;;;;8.65;4.22;;;26.90;56.60;;;28.86;34.80;168177.97;5079416;28;20029;-83
2022/05/09 10:04:35;;;;;;;10.50;3.95;;;26.70;56.40;;;29.04;34.80;168225.19;5060274;28;20047;-85
2022/05/09 10:07:30;;;;;;;9.77;3.72;;;26.70;56.20;;;29.11;35.05;168244.09;5058150;28;20507;-86
2022/05/09 10:10:29;;;;;;;7.70;3.72;;;26.90;56.40;;;28.73;34.04;168142.88;5063490;28;20058;-87
2022/05/09 10:13:21;;;;;;;5.47;3.42;;;26.70;54.90;;;28.97;34.46;168207.66;5077539;28;20036;-86
2022/05/09 10:16:33;;;;;;;6.38;3.63;;;26.90;54.80;;;29.07;34.68;168233.28;5077436;28;20028;-86
2022/05/09 10:19:57;;;;;;;7.43;3.55;;;27.00;55.90;;;29.06;33.04;168231.94;5078086;28;20028;-84
2022/05/09 10:26:27;;;;;;;5.72;3.72;;;27.00;55.00;;;29.09;34.69;168238.72;5096154;28;20502;-86
2022/05/09 10:29:09;;;;;;;10.60;4.70;;;27.00;55.30;;;29.07;33.23;168234.66;5078047;28;20024;-84
2022/05/09 10:31:49;;;;;;;6.90;3.75;;;27.20;53.90;;;29.39;33.53;168318.38;5077290;28;20027;-86
2022/05/09 10:34:36;;;;;;;7.00;3.53;;;27.30;55.10;;;29.53;33.74;168356.22;5078144;28;20051;-85
2022/05/09 10:37:20;;;;;;;9.23;4.40;;;27.30;55.50;;;29.75;34.12;168416.97;5076509;28;20028;-84
2022/05/09 10:40:07;;;;;;;6.25;3.90;;;27.50;55.60;;;29.21;34.15;168272.47;5075530;28;20020;-84
2022/05/09 10:43:08;;;;;;;7.25;3.90;;;27.30;54.20;;;29.55;33.77;168362.94;5077280;28;20031;-84
2022/05/09 10:45:49;;;;;;;6.90;4.15;;;27.30;55.30;;;29.65;34.39;168389.97;5094628;28;20031;-87
2022/05/09 10:48:41;;;;;;;7.22;3.47;;;27.30;55.50;;;30.13;34.07;168516.94;5075867;28;20060;-83
2022/05/09 10:51:25;;;;;;;6.32;3.22;;;27.70;55.70;;;30.63;32.53;168650.75;5076952;28;20214;-85
2022/05/09 10:54:24;;;;;;;5.22;3.42;;;28.10;53.90;;;30.66;33.88;168660.19;5094575;28;20026;-86
2022/05/09 10:57:35;;;;;;;5.32;3.42;;;28.50;55.20;;;31.28;32.08;168825.03;5077265;28;20027;-84
2022/05/09 11:00:55;;;;;;;5.80;3.42;;;28.80;53.40;;;31.12;31.44;168781.78;5078153;28;20052;-85
2022/05/09 11:03:35;;;;;;;6.07;3.40;;;28.80;52.50;;;31.06;32.00;168766.94;5080923;28;20024;-85
2022/05/09 11:07:17;;;;;;;8.18;4.35;;;28.80;52.30;;;30.03;32.76;168491.28;5078236;28;20028;-86